Archiv-/Tagesdaten

--Timestamp---	Temp	Chill	HIndex	Humid	Dewpt	Wind	HiWind	WindDir	Rain	Barom	        Solar	ET	UV
--------------	----	-----	------	-----	-----	----	------	-------	----	-----	        -----	--	--
20080629 00:05	17.4	17.4	17.4	75	13.0	0	0	112	0.00	1019.170	0	0.000	0
20080629 00:10	17.3	17.3	17.3	76	13.0	0	0	112	0.00	1019.137	0	0.000	0
20080629 00:15	17.2	17.2	17.2	77	13.2	0	0	112	0.00	1019.137	0	0.000	0
20080629 00:20	17.1	17.1	17.1	77	13.0	0	0	112	0.00	1019.272	0	0.000	0
20080629 00:25	16.9	16.9	16.9	78	13.0	0	0	112	0.00	1019.238	0	0.000	0
20080629 00:30	16.8	16.8	16.8	78	12.9	0	0	112	0.00	1019.340	0	0.000	0
20080629 00:35	16.6	16.6	16.6	79	13.0	0	0	112	0.00	1019.272	0	0.000	0
20080629 00:40	16.6	16.6	16.6	79	12.9	0	0	112	0.00	1019.238	0	0.000	0
20080629 00:45	16.4	16.4	16.4	79	12.8	0	0	112	0.00	1019.170	0	0.000	0
20080629 00:50	16.4	16.4	16.4	80	13.0	0	0	112	0.00	1019.137	0	0.000	0
20080629 00:55	16.4	16.4	16.4	80	12.9	0	0	112	0.00	1019.069	0	0.000	0
20080629 01:00	16.3	16.3	16.3	80	12.9	0	0	112	0.00	1019.137	0	0.020	0
20080629 01:05	16.3	16.3	16.3	81	13.0	0	0	112	0.00	1018.967	0	0.000	0
20080629 01:10	16.2	16.2	16.2	81	13.0	0	0	112	0.00	1018.933	0	0.000	0
20080629 01:15	16.1	16.1	16.1	81	12.8	0	0	112	0.00	1018.933	0	0.000	0
20080629 01:20	16.1	16.1	16.1	81	12.8	0	0	112	0.00	1018.933	0	0.000	0
20080629 01:25	15.9	15.9	15.9	81	12.7	0	0	112	0.00	1018.933	0	0.000	0
20080629 01:30	15.8	15.8	15.8	82	12.8	0	0	112	0.00	1018.899	0	0.000	0
20080629 01:35	15.8	15.8	15.8	82	12.8	0	0	112	0.00	1018.899	0	0.000	0
20080629 01:40	15.9	15.9	15.9	82	12.9	0	2	135	0.00	1018.899	0	0.000	0
20080629 01:45	15.9	15.9	15.9	82	12.9	0	3	135	0.00	1018.933	0	0.000	0
20080629 01:50	15.9	15.9	15.9	82	12.9	0	2	135	0.00	1018.899	0	0.000	0
20080629 01:55	15.9	15.9	15.9	82	12.9	0	2	135	0.00	1018.866	0	0.000	0
20080629 02:00	15.8	15.8	15.8	83	12.9	0	2	135	0.00	1018.832	0	0.020	0
20080629 02:05	15.8	15.8	15.8	83	12.9	0	3	135	0.00	1018.866	0	0.000	0
20080629 02:10	15.7	15.7	15.7	83	12.8	0	3	157	0.00	1018.832	0	0.000	0
20080629 02:15	15.6	15.6	15.6	83	12.7	0	3	157	0.00	1018.832	0	0.000	0
20080629 02:20	15.6	15.6	15.6	83	12.7	0	2	157	0.00	1018.866	0	0.000	0
20080629 02:25	15.6	15.6	15.6	83	12.7	0	0	157	0.00	1018.866	0	0.000	0
20080629 02:30	15.5	15.5	15.5	83	12.6	0	0	157	0.00	1018.866	0	0.000	0
20080629 02:35	15.4	15.4	15.4	83	12.6	0	0	157	0.00	1018.832	0	0.000	0
20080629 02:40	15.3	15.3	15.3	83	12.5	0	2	157	0.00	1018.832	0	0.000	0
20080629 02:45	15.3	15.3	15.3	83	12.5	0	0	157	0.00	1018.798	0	0.000	0
20080629 02:50	15.3	15.3	15.3	84	12.6	0	3	157	0.00	1018.866	0	0.000	0
20080629 02:55	15.3	15.3	15.3	84	12.6	0	3	157	0.00	1018.832	0	0.000	0
20080629 03:00	15.3	15.3	15.3	84	12.6	0	2	157	0.00	1018.832	0	0.020	0
20080629 03:05	15.3	15.3	15.3	84	12.6	0	2	157	0.00	1018.866	0	0.000	0
20080629 03:10	15.3	15.3	15.3	84	12.6	0	3	157	0.00	1018.866	0	0.000	0
20080629 03:15	15.3	15.3	15.3	84	12.6	0	0	157	0.00	1018.832	0	0.000	0
20080629 03:20	15.2	15.2	15.2	84	12.5	0	0	157	0.00	1018.764	0	0.000	0
20080629 03:25	15.2	15.2	15.2	84	12.5	0	3	157	0.00	1018.730	0	0.000	0
20080629 03:30	15.2	15.2	15.2	84	12.5	2	6	157	0.00	1018.730	0	0.000	0
20080629 03:35	15.2	15.2	15.2	84	12.5	0	6	157	0.00	1018.696	0	0.000	0
20080629 03:40	15.1	15.1	15.1	84	12.4	0	3	157	0.00	1018.561	0	0.000	0
20080629 03:45	15.0	15.0	15.0	84	12.3	0	2	157	0.00	1018.561	0	0.000	0
20080629 03:50	15.0	15.0	15.0	84	12.3	0	5	157	0.00	1018.662	0	0.000	0
20080629 03:55	15.0	15.0	15.0	84	12.3	0	3	157	0.00	1018.561	0	0.000	0
20080629 04:00	15.0	15.0	15.0	84	12.3	0	3	157	0.00	1018.561	0	0.020	0
20080629 04:05	15.0	15.0	15.0	85	12.5	0	5	157	0.00	1018.493	0	0.000	0
20080629 04:10	15.0	15.0	15.0	85	12.5	0	2	157	0.00	1018.561	0	0.000	0
20080629 04:15	14.9	14.9	14.9	85	12.4	2	6	157	0.00	1018.459	0	0.000	0
20080629 04:20	14.8	14.8	14.8	85	12.3	2	6	180	0.00	1018.392	0	0.000	0
20080629 04:25	14.7	14.7	14.7	85	12.2	0	5	180	0.00	1018.358	0	0.000	0
20080629 04:30	14.6	14.6	14.6	85	12.1	2	6	180	0.00	1018.561	0	0.000	0
20080629 04:35	14.5	14.5	14.5	86	12.2	2	8	180	0.00	1018.662	0	0.000	0
20080629 04:40	14.5	14.5	14.5	86	12.2	0	2	180	0.00	1018.561	0	0.000	0
20080629 04:45	14.5	14.5	14.5	86	12.2	0	2	180	0.00	1018.595	0	0.000	0
20080629 04:50	14.4	14.4	14.4	86	12.1	0	2	180	0.00	1018.595	0	0.000	0
20080629 04:55	14.3	14.3	14.3	86	12.0	0	3	180	0.00	1018.595	0	0.000	0
20080629 05:00	14.3	14.3	14.3	86	12.0	0	3	180	0.00	1018.459	0	0.000	0
20080629 05:05	14.3	14.3	14.3	86	12.0	0	2	180	0.00	1018.459	0	0.000	0
20080629 05:10	14.2	14.2	14.2	86	11.9	0	2	180	0.00	1018.527	0	0.000	0
20080629 05:15	14.2	14.2	14.2	86	11.9	0	3	180	0.00	1018.662	0	0.000	0
20080629 05:20	14.2	14.2	14.2	86	11.9	0	3	180	0.00	1018.730	0	0.000	0
20080629 05:25	14.1	14.1	14.1	86	11.8	2	5	180	0.00	1018.899	2	0.000	0
20080629 05:30	13.9	13.9	13.9	86	11.6	0	3	180	0.00	1018.899	5	0.000	0
20080629 05:35	13.7	13.7	13.7	86	11.4	0	5	180	0.00	1018.866	7	0.000	0
20080629 05:40	13.6	13.6	13.6	87	11.5	0	5	180	0.00	1018.866	10	0.000	0
20080629 05:45	13.6	13.6	13.6	87	11.4	0	0	180	0.00	1018.832	15	0.000	0
20080629 05:50	13.6	13.6	13.6	87	11.5	0	0	180	0.00	1018.933	19	0.000	0
20080629 05:55	13.6	13.6	13.6	87	11.5	0	2	180	0.00	1018.662	19	0.000	0
20080629 06:00	13.6	13.6	13.6	87	11.5	0	0	180	0.00	1018.527	21	0.000	0
20080629 06:05	13.7	13.7	13.7	87	11.5	0	0	180	0.00	1018.629	22	0.000	0
20080629 06:10	13.7	13.7	13.7	87	11.6	0	2	180	0.00	1018.662	27	0.000	0
20080629 06:15	13.8	13.8	13.8	87	11.6	0	0	180	0.00	1018.764	30	0.000	0
20080629 06:20	13.9	13.9	13.9	87	11.8	0	2	180	0.00	1018.696	33	0.000	0
20080629 06:25	14.0	14.0	14.0	87	11.9	0	2	180	0.00	1018.764	34	0.000	0
20080629 06:30	14.2	14.2	14.2	86	11.9	2	6	180	0.00	1018.696	36	0.000	0
20080629 06:35	14.3	14.3	14.3	86	12.0	0	2	180	0.00	1018.595	38	0.000	0
20080629 06:40	14.5	14.5	14.5	85	12.0	0	2	180	0.00	1018.696	41	0.000	0
20080629 06:45	14.7	14.7	14.7	85	12.2	0	2	180	0.00	1018.595	99	0.000	0
20080629 06:50	14.9	14.9	14.9	84	12.3	0	2	180	0.00	1018.662	138	0.000	0
20080629 06:55	15.0	15.0	15.0	83	12.1	0	2	180	0.00	1018.527	134	0.000	0
20080629 07:00	15.4	15.4	15.4	83	12.5	0	2	180	0.00	1018.459	164	0.020	0
20080629 07:05	15.7	15.7	15.7	82	12.6	0	2	180	0.00	1018.696	179	0.000	0
20080629 07:10	15.9	15.9	15.9	81	12.7	0	2	180	0.00	1018.595	195	0.000	0
20080629 07:15	16.2	16.2	16.2	81	13.0	0	2	180	0.00	1018.527	206	0.000	1
20080629 07:20	16.4	16.4	16.4	81	13.2	0	2	180	0.00	1018.493	219	0.000	1
20080629 07:25	16.7	16.7	16.7	81	13.4	0	2	180	0.00	1018.527	232	0.000	1
20080629 07:30	17.1	17.1	17.1	80	13.6	0	0	180	0.00	1018.392	242	0.000	1
20080629 07:35	17.6	17.6	17.6	79	13.9	0	2	180	0.00	1018.324	255	0.000	1
20080629 07:40	18.0	18.0	18.0	77	13.9	0	2	180	0.00	1018.324	267	0.000	1
20080629 07:45	18.3	18.3	18.3	77	14.2	0	0	180	0.00	1018.290	278	0.000	1
20080629 07:50	18.6	18.6	18.6	74	13.9	0	2	180	0.00	1018.324	293	0.000	1
20080629 07:55	18.9	18.9	18.9	74	14.2	0	3	180	0.00	1018.392	305	0.000	1
20080629 08:00	19.2	19.2	19.2	71	13.8	2	3	180	0.00	1018.188	317	0.100	1
20080629 08:05	19.2	19.2	19.2	73	14.2	0	3	180	0.00	1018.358	331	0.000	1
20080629 08:10	19.3	19.3	19.3	74	14.6	0	3	180	0.00	1018.392	343	0.000	1
20080629 08:15	19.6	19.6	19.6	73	14.6	0	2	180	0.00	1018.290	355	0.000	2
20080629 08:20	19.7	19.7	19.7	72	14.5	0	2	180	0.00	1018.222	367	0.000	2
20080629 08:25	19.7	19.7	19.7	71	14.3	0	5	180	0.00	1018.324	381	0.000	2
20080629 08:30	19.8	19.8	19.8	72	14.6	0	2	180	0.00	1018.290	395	0.000	2
20080629 08:35	20.2	20.2	20.2	71	14.7	0	2	180	0.00	1018.324	410	0.000	2
20080629 08:40	20.4	20.4	20.4	69	14.6	0	3	180	0.00	1018.121	428	0.000	2
20080629 08:45	20.6	20.6	20.6	70	14.9	0	0	180	0.00	1018.154	397	0.000	2
20080629 08:50	20.7	20.7	20.7	69	14.8	0	3	180	0.00	1018.222	448	0.000	2
20080629 08:55	20.8	20.8	20.8	68	14.6	0	5	180	0.00	1018.256	457	0.000	2
20080629 09:00	21.2	21.2	21.2	66	14.6	0	2	180	0.00	1018.188	469	0.180	3
20080629 09:05	21.6	21.6	21.6	67	15.2	0	5	180	0.00	1018.324	487	0.000	3
20080629 09:10	21.7	21.7	21.7	64	14.6	2	5	157	0.00	1018.290	495	0.000	3
20080629 09:15	21.6	21.6	21.6	65	14.7	3	6	157	0.00	1018.222	507	0.000	3
20080629 09:20	21.5	21.5	21.5	64	14.4	3	6	45	0.00	1018.154	520	0.000	3
20080629 09:25	21.7	21.7	21.7	65	14.8	0	3	22	0.00	1018.154	532	0.000	3
20080629 09:30	21.7	21.7	21.7	64	14.6	3	6	22	0.00	1018.121	539	0.000	3
20080629 09:35	21.8	21.8	21.8	63	14.5	2	5	45	0.00	1018.087	552	0.000	4
20080629 09:40	22.3	22.3	22.3	62	14.6	2	5	67	0.00	1018.087	563	0.000	4
20080629 09:45	22.4	22.4	22.4	62	14.8	2	5	67	0.00	1018.019	577	0.000	4
20080629 09:50	22.5	22.5	22.5	63	15.1	2	6	67	0.00	1017.985	583	0.000	4
20080629 09:55	22.5	22.5	22.5	62	14.8	3	6	45	0.00	1017.850	593	0.000	4
20080629 10:00	22.6	22.6	22.6	64	15.4	0	3	45	0.00	1017.816	604	0.260	4
20080629 10:05	22.7	22.7	22.7	64	15.5	3	8	45	0.00	1017.917	616	0.000	5
20080629 10:10	22.8	22.8	22.8	64	15.7	2	5	67	0.00	1017.782	625	0.000	5
20080629 10:15	23.1	23.1	23.1	62	15.4	3	10	22	0.00	1017.613	631	0.000	5
20080629 10:20	23.2	23.2	23.2	61	15.3	2	5	45	0.00	1017.680	643	0.000	5
20080629 10:25	23.1	23.1	23.1	59	14.6	2	6	112	0.00	1017.714	658	0.000	5
20080629 10:30	23.2	23.2	23.2	61	15.3	2	10	90	0.00	1017.680	668	0.000	6
20080629 10:35	23.1	23.1	23.1	60	14.9	5	10	67	0.00	1017.748	673	0.000	6
20080629 10:40	23.2	23.2	23.2	59	14.7	2	8	45	0.00	1017.748	685	0.000	6
20080629 10:45	23.3	23.3	23.3	57	14.3	5	8	45	0.00	1017.748	698	0.000	6
20080629 10:50	23.3	23.3	23.3	57	14.3	3	8	45	0.00	1017.680	708	0.000	6
20080629 10:55	23.4	23.4	23.4	58	14.6	3	5	67	0.00	1017.680	718	0.000	6
20080629 11:00	23.4	23.4	23.4	57	14.4	2	6	67	0.00	1017.613	728	0.000	7
20080629 11:05	23.6	23.6	23.6	57	14.5	3	6	45	0.00	1017.748	734	0.340	7
20080629 11:10	23.8	23.8	23.8	57	14.8	2	10	67	0.00	1017.748	744	0.000	7
20080629 11:15	24.1	24.1	25.4	56	14.8	0	5	135	0.00	1017.647	750	0.000	7
20080629 11:20	24.2	24.2	25.4	57	15.1	3	6	90	0.00	1017.579	758	0.000	7
20080629 11:25	23.9	23.9	25.3	56	14.6	6	10	45	0.00	1017.647	765	0.000	8
20080629 11:30	24.0	24.0	25.3	57	14.9	2	6	67	0.00	1017.613	768	0.000	8
20080629 11:35	24.3	24.3	25.5	55	14.6	2	6	22	0.00	1017.477	772	0.000	8
20080629 11:40	24.2	24.2	25.4	55	14.5	3	10	22	0.00	1017.443	779	0.000	8
20080629 11:45	24.3	24.3	25.5	56	15.0	2	6	292	0.00	1017.443	784	0.000	8
20080629 11:50	24.5	24.5	25.6	56	15.1	3	8	45	0.00	1017.409	793	0.000	8
20080629 11:55	24.8	24.8	25.8	54	14.9	2	10	22	0.00	1017.409	795	0.000	8
20080629 12:00	24.9	24.9	25.9	53	14.7	3	10	292	0.00	1017.409	806	0.380	8
20080629 12:05	24.9	24.9	25.9	53	14.7	2	8	22	0.00	1017.511	810	0.000	8
20080629 12:10	25.0	25.0	25.9	53	14.7	3	8	22	0.00	1017.477	817	0.000	9
20080629 12:15	25.2	25.2	26.0	53	14.9	2	3	22	0.00	1017.511	820	0.000	9
20080629 12:20	25.4	25.4	26.2	53	15.2	2	6	292	0.00	1017.443	822	0.000	9
20080629 12:25	25.3	25.3	26.1	50	14.1	3	10	22	0.00	1017.477	827	0.000	9
20080629 12:30	25.4	25.4	26.2	51	14.5	2	8	337	0.00	1017.409	829	0.000	9
20080629 12:35	25.4	25.4	26.2	50	14.2	2	8	292	0.00	1017.443	835	0.000	9
20080629 12:40	25.5	25.5	26.2	50	14.3	2	10	292	0.00	1017.409	837	0.000	9
20080629 12:45	25.7	25.7	26.4	51	14.8	3	8	22	0.00	1017.342	838	0.000	9
20080629 12:50	25.4	25.4	26.1	50	14.2	3	10	22	0.00	1017.342	839	0.000	9
20080629 12:55	25.4	25.4	26.2	52	14.9	2	8	22	0.00	1017.308	839	0.000	9
20080629 13:00	25.7	25.7	26.3	51	14.8	3	11	270	0.00	1017.342	841	0.420	9
20080629 13:05	25.7	25.7	26.3	51	14.8	6	14	292	0.00	1017.308	839	0.000	9
20080629 13:10	25.8	25.8	26.5	52	15.2	5	10	292	0.00	1017.240	838	0.000	9
20080629 13:15	25.8	25.8	26.4	50	14.6	5	16	292	0.00	1017.206	840	0.000	9
20080629 13:20	25.7	25.7	26.3	49	14.2	6	16	292	0.00	1017.206	838	0.000	9
20080629 13:25	25.7	25.7	26.4	51	14.8	3	14	292	0.00	1017.172	841	0.000	9
20080629 13:30	25.9	25.9	26.5	50	14.7	3	11	270	0.00	1017.037	840	0.000	9
20080629 13:35	26.0	26.0	26.5	49	14.4	5	11	22	0.00	1016.969	843	0.000	9
20080629 13:40	26.1	26.1	26.7	51	15.2	3	16	270	0.00	1016.935	838	0.000	9
20080629 13:45	26.3	26.3	26.7	49	14.7	2	5	22	0.00	1016.969	839	0.000	9
20080629 13:50	26.3	26.3	26.8	49	14.7	3	8	292	0.00	1016.901	839	0.000	9
20080629 13:55	26.5	26.5	27.0	50	15.2	3	8	270	0.00	1016.834	839	0.000	9
20080629 14:00	26.7	26.7	27.1	49	15.1	3	11	270	0.00	1016.834	836	0.440	9
20080629 14:05	26.5	26.5	27.0	50	15.2	5	11	270	0.00	1016.766	828	0.000	9
20080629 14:10	26.6	26.6	27.0	49	15.0	2	11	22	0.00	1016.800	824	0.000	9
20080629 14:15	26.7	26.7	27.1	48	14.8	2	6	45	0.00	1016.766	826	0.000	9
20080629 14:20	26.5	26.5	26.9	48	14.6	0	5	45	0.00	1016.698	819	0.000	9
20080629 14:25	26.6	26.6	27.0	49	15.0	2	6	247	0.00	1016.597	818	0.000	9
20080629 14:30	26.7	26.7	27.0	48	14.7	2	6	45	0.00	1016.563	811	0.000	8
20080629 14:35	26.7	26.7	27.2	51	15.7	3	10	0	0.00	1016.529	804	0.000	8
20080629 14:40	26.8	26.8	27.2	49	15.2	3	10	45	0.00	1016.461	800	0.000	8
20080629 14:45	26.9	26.9	27.3	49	15.3	3	10	315	0.00	1016.427	802	0.000	8
20080629 14:50	26.8	26.8	27.1	47	14.5	3	8	22	0.00	1016.394	798	0.000	8
20080629 14:55	26.8	26.8	27.2	49	15.2	2	8	22	0.00	1016.394	791	0.000	8
20080629 15:00	27.0	27.0	27.2	47	14.7	3	11	292	0.00	1016.326	786	0.420	8
20080629 15:05	27.3	27.3	27.6	48	15.3	2	10	292	0.00	1016.224	779	0.000	8
20080629 15:10	27.5	27.5	27.7	47	15.2	3	8	0	0.00	1016.190	773	0.000	8
20080629 15:15	27.6	27.6	27.9	49	15.9	2	6	0	0.00	1016.190	765	0.000	8
20080629 15:20	27.8	27.8	28.0	47	15.4	2	6	0	0.00	1016.123	760	0.000	7
20080629 15:25	28.0	28.0	28.1	46	15.3	2	8	22	0.00	1016.055	755	0.000	7
20080629 15:30	28.2	28.2	28.3	46	15.5	2	8	0	0.00	1015.919	748	0.000	7
20080629 15:35	28.4	28.4	28.5	46	15.6	3	11	292	0.00	1015.852	741	0.000	7
20080629 15:40	28.4	28.4	28.3	43	14.6	5	14	292	0.00	1015.886	732	0.000	7
20080629 15:45	28.3	28.3	28.2	44	14.8	3	18	270	0.00	1015.953	725	0.000	7
20080629 15:50	28.3	28.3	28.3	44	14.9	2	6	292	0.00	1015.886	716	0.000	6
20080629 15:55	28.2	28.2	28.2	44	14.8	3	8	292	0.00	1015.852	709	0.000	6
20080629 16:00	27.9	27.9	28.0	45	14.9	5	10	292	0.00	1015.919	703	0.400	6
20080629 16:05	27.9	27.9	27.9	45	14.8	5	13	292	0.00	1015.886	697	0.000	6
20080629 16:10	27.9	27.9	28.1	46	15.2	3	8	292	0.00	1015.886	687	0.000	6
20080629 16:15	27.9	27.9	28.1	46	15.2	2	6	292	0.00	1015.818	645	0.000	5
20080629 16:20	27.9	27.9	28.0	45	14.9	2	5	22	0.00	1015.818	603	0.000	5
20080629 16:25	28.1	28.1	28.2	46	15.4	0	3	337	0.00	1015.716	625	0.000	5
20080629 16:30	28.3	28.3	28.4	46	15.5	2	6	270	0.00	1015.818	636	0.000	5
20080629 16:35	28.2	28.2	28.2	45	15.1	5	10	22	0.00	1015.716	594	0.000	5
20080629 16:40	28.1	28.1	28.2	46	15.4	2	10	270	0.00	1015.682	601	0.000	4
20080629 16:45	28.2	28.2	28.3	45	15.1	3	8	292	0.00	1015.615	571	0.000	4
20080629 16:50	28.2	28.2	28.4	47	15.8	3	8	292	0.00	1015.615	568	0.000	4
20080629 16:55	28.0	28.0	28.0	45	14.9	5	11	22	0.00	1015.615	552	0.000	4
20080629 17:00	27.9	27.9	28.3	49	16.2	2	8	22	0.00	1015.581	541	0.340	4
20080629 17:05	28.2	28.2	28.5	48	16.1	3	6	0	0.00	1015.581	556	0.000	4
20080629 17:10	28.1	28.1	28.4	48	16.1	2	6	22	0.00	1015.513	548	0.000	4
20080629 17:15	28.2	28.2	28.3	46	15.5	2	8	22	0.00	1015.547	534	0.000	3
20080629 17:20	28.2	28.2	28.3	46	15.5	2	8	22	0.00	1015.479	526	0.000	3
20080629 17:25	28.3	28.3	28.3	45	15.2	3	8	22	0.00	1015.479	518	0.000	3
20080629 17:30	28.0	28.0	28.2	47	15.6	5	11	22	0.00	1015.445	494	0.000	3
20080629 17:35	27.8	27.8	28.1	49	16.1	2	6	45	0.00	1015.581	483	0.000	3
20080629 17:40	28.1	28.1	28.5	49	16.4	2	5	270	0.00	1015.445	473	0.000	3
20080629 17:45	28.3	28.3	28.5	47	15.9	2	6	0	0.00	1015.276	460	0.000	2
20080629 17:50	28.4	28.4	28.5	46	15.6	2	10	22	0.00	1015.242	447	0.000	2
20080629 17:55	28.4	28.4	28.5	46	15.6	3	11	22	0.00	1015.276	438	0.000	2
20080629 18:00	28.1	28.1	28.2	46	15.3	5	11	22	0.00	1015.276	428	0.280	2
20080629 18:05	28.1	28.1	28.2	47	15.7	3	11	0	0.00	1015.107	404	0.000	2
20080629 18:10	27.8	27.8	28.1	49	16.1	3	8	22	0.00	1015.039	350	0.000	2
20080629 18:15	27.9	27.9	28.2	48	15.8	2	5	22	0.00	1015.039	329	0.000	2
20080629 18:20	27.9	27.9	28.2	48	15.9	2	8	22	0.00	1015.039	341	0.000	2
20080629 18:25	27.6	27.6	27.8	48	15.5	3	8	45	0.00	1014.971	287	0.000	1
20080629 18:30	27.4	27.4	27.7	48	15.4	3	6	45	0.00	1015.073	351	0.000	1
20080629 18:35	27.4	27.4	27.9	51	16.4	3	6	45	0.00	1015.073	339	0.000	1
20080629 18:40	27.6	27.6	27.8	48	15.5	5	10	45	0.00	1014.971	323	0.000	1
20080629 18:45	27.6	27.6	27.8	48	15.5	3	6	45	0.00	1014.971	309	0.000	1
20080629 18:50	27.6	27.6	27.9	48	15.6	2	6	0	0.00	1014.937	298	0.000	1
20080629 18:55	27.4	27.4	27.8	49	15.8	5	10	45	0.00	1014.802	287	0.000	1
20080629 19:00	27.3	27.3	27.7	50	15.9	3	6	67	0.00	1014.904	276	0.200	1
20080629 19:05	27.2	27.2	27.6	51	16.1	3	8	67	0.00	1014.429	267	0.000	1
20080629 19:10	27.0	27.0	27.5	51	16.0	5	8	67	0.00	1014.362	253	0.000	1
20080629 19:15	26.9	26.9	27.4	51	15.9	5	8	22	0.00	1014.362	240	0.000	1
20080629 19:20	26.7	26.7	27.2	51	15.7	3	6	67	0.00	1014.531	223	0.000	1
20080629 19:25	26.7	26.7	27.2	52	16.0	3	6	67	0.00	1014.497	147	0.000	0
20080629 19:30	26.5	26.5	27.1	53	16.1	3	8	67	0.00	1014.362	50	0.000	0
20080629 19:35	26.4	26.4	27.1	53	16.1	3	5	67	0.00	1014.429	47	0.000	0
20080629 19:40	26.2	26.2	26.9	54	16.1	3	6	67	0.00	1014.362	45	0.000	0
20080629 19:45	26.0	26.0	26.8	56	16.5	3	8	67	0.00	1014.294	44	0.000	0
20080629 19:50	25.8	25.8	26.6	56	16.4	2	6	67	0.00	1014.362	44	0.000	0
20080629 19:55	25.6	25.6	26.4	57	16.4	3	5	45	0.00	1014.396	43	0.000	0
20080629 20:00	25.4	25.4	26.3	58	16.6	3	6	67	0.00	1014.328	41	0.080	0
20080629 20:05	25.3	25.3	26.2	58	16.5	3	5	67	0.00	1014.159	38	0.000	0
20080629 20:10	25.2	25.2	26.1	59	16.6	3	6	67	0.00	1014.192	34	0.000	0
20080629 20:15	25.1	25.1	26.0	58	16.2	3	6	45	0.00	1014.192	33	0.000	0
20080629 20:20	24.9	24.9	25.9	58	16.1	3	5	45	0.00	1014.091	30	0.000	0
20080629 20:25	24.8	24.8	25.8	59	16.2	2	5	45	0.00	1014.091	27	0.000	0
20080629 20:30	24.7	24.7	25.7	61	16.6	0	3	45	0.00	1014.226	26	0.000	0
20080629 20:35	24.6	24.6	25.6	62	16.8	0	2	45	0.00	1014.192	24	0.000	0
20080629 20:40	24.3	24.3	25.5	62	16.6	0	2	45	0.00	1014.192	21	0.000	0
20080629 20:45	24.2	24.2	25.3	63	16.7	0	2	45	0.00	1014.192	18	0.000	0
20080629 20:50	24.1	24.1	25.2	63	16.6	0	2	45	0.00	1014.328	18	0.000	0
20080629 20:55	23.9	23.9	25.1	63	16.4	0	2	45	0.00	1014.328	16	0.000	0
20080629 21:00	23.8	23.8	23.8	63	16.3	0	2	45	0.00	1014.429	14	0.020	0
20080629 21:05	23.7	23.7	23.7	63	16.2	0	2	45	0.00	1014.125	10	0.000	0
20080629 21:10	23.7	23.7	23.7	64	16.4	0	2	45	0.00	1014.159	7	0.000	0
20080629 21:15	23.6	23.6	23.6	63	16.1	0	2	45	0.00	1014.328	3	0.000	0
20080629 21:20	23.5	23.5	23.5	63	16.0	0	0	45	0.00	1014.429	0	0.000	0
20080629 21:25	23.4	23.4	23.4	64	16.2	0	0	45	0.00	1014.429	0	0.000	0
20080629 21:30	23.2	23.2	23.2	64	16.0	0	0	45	0.00	1014.362	0	0.000	0
20080629 21:35	23.1	23.1	23.1	64	15.9	0	0	45	0.00	1014.429	0	0.000	0
20080629 21:40	22.9	22.9	22.9	65	16.0	0	0	45	0.00	1014.429	0	0.000	0
20080629 21:45	22.8	22.8	22.8	66	16.1	0	0	45	0.00	1014.429	0	0.000	0
20080629 21:50	22.7	22.7	22.7	66	16.0	0	0	45	0.00	1014.328	0	0.000	0
20080629 21:55	22.6	22.6	22.6	66	15.9	0	2	45	0.00	1014.294	0	0.000	0
20080629 22:00	22.4	22.4	22.4	67	16.0	0	3	45	0.00	1014.328	0	0.000	0
20080629 22:05	22.2	22.2	22.2	66	15.6	2	6	45	0.00	1014.260	0	0.000	0
20080629 22:10	22.2	22.2	22.2	66	15.6	2	5	45	0.00	1014.328	0	0.000	0
20080629 22:15	22.2	22.2	22.2	66	15.6	2	3	45	0.00	1014.463	0	0.000	0
20080629 22:20	22.1	22.1	22.1	67	15.6	0	3	45	0.00	1014.565	0	0.000	0
20080629 22:25	21.9	21.9	21.9	68	15.7	0	2	45	0.00	1014.802	0	0.000	0
20080629 22:30	21.8	21.8	21.8	68	15.6	0	2	45	0.00	1014.904	0	0.000	0
20080629 22:35	21.7	21.7	21.7	68	15.5	0	2	45	0.00	1015.107	0	0.000	0
20080629 22:40	21.7	21.7	21.7	68	15.5	0	3	67	0.00	1015.141	0	0.000	0
20080629 22:45	21.7	21.7	21.7	68	15.5	0	0	67	0.00	1015.208	0	0.000	0
20080629 22:50	21.8	21.8	21.8	68	15.6	0	2	67	0.00	1015.344	0	0.000	0
20080629 22:55	21.8	21.8	21.8	68	15.7	0	2	67	0.00	1015.276	0	0.000	0
20080629 23:00	21.8	21.8	21.8	68	15.7	0	0	67	0.00	1015.344	0	0.020	0
20080629 23:05	21.8	21.8	21.8	68	15.7	0	0	67	0.00	1015.107	0	0.000	0
20080629 23:10	21.8	21.8	21.8	68	15.7	0	0	67	0.00	1015.073	0	0.000	0
20080629 23:15	21.8	21.8	21.8	68	15.7	0	0	67	0.00	1015.073	0	0.000	0
20080629 23:20	21.8	21.8	21.8	68	15.6	0	0	67	0.00	1015.073	0	0.000	0
20080629 23:25	21.7	21.7	21.7	69	15.8	0	0	67	0.00	1014.971	0	0.000	0
20080629 23:30	21.7	21.7	21.7	70	15.9	0	0	67	0.00	1014.937	0	0.000	0
20080629 23:35	21.4	21.4	21.4	72	16.1	0	0	67	0.00	1014.836	0	0.000	0
20080629 23:40	21.2	21.2	21.2	72	15.9	0	0	67	0.00	1014.836	0	0.000	0
20080629 23:45	21.1	21.1	21.1	73	16.0	0	0	67	0.00	1014.700	0	0.000	0
20080629 23:50	20.9	20.9	20.9	74	16.1	0	0	67	0.00	1014.700	0	0.000	0
20080629 23:55	20.8	20.8	20.8	74	16.0	0	0	67	0.00	1014.768	0	0.000	0
20080629 24:00	20.8	20.8	20.8	74	16.0	0	0	67	0.00	1014.836	0	0.020	0



Please note the license to use and transfer of this data:
http://creativecommons.org/licenses/by-nc-sa/3.0/deed.en

Bitte beachten sie die Lizenz zur Verwertung und Weitergabe der Daten:
http://creativecommons.org/licenses/by-nc-sa/3.0/deed.de

zurück zur Übersicht der Archivdaten (Monats und Tagesdaten)

Cookies helfen bei der Bereitstellung von Inhalten. Durch die Nutzung dieser Seiten erklärst du dich damit einverstanden, dass Cookies auf deinem Rechner gespeichert werden. Weitere Information